sensor_id;sensor_type;location;lat;lon;timestamp;P1;durP1;ratioP1;P2;durP2;ratioP2
7233;SDS011;3658;47.992;10.158;2024-01-10T00:01:13;7.97;;;5.63;;
7233;SDS011;3658;47.992;10.158;2024-01-10T00:03:40;17.67;;;5.97;;
7233;SDS011;3658;47.992;10.158;2024-01-10T00:06:06;8.57;;;6.30;;
7233;SDS011;3658;47.992;10.158;2024-01-10T00:08:35;6.30;;;4.73;;
7233;SDS011;3658;47.992;10.158;2024-01-10T00:11:01;6.87;;;5.27;;
7233;SDS011;3658;47.992;10.158;2024-01-10T00:13:29;6.87;;;4.83;;
7233;SDS011;3658;47.992;10.158;2024-01-10T00:15:55;6.03;;;4.90;;
7233;SDS011;3658;47.992;10.158;2024-01-10T00:18:23;5.90;;;5.07;;
7233;SDS011;3658;47.992;10.158;2024-01-10T00:20:51;8.43;;;5.57;;
7233;SDS011;3658;47.992;10.158;2024-01-10T00:23:18;6.03;;;4.87;;
7233;SDS011;3658;47.992;10.158;2024-01-10T00:25:47;7.10;;;5.47;;
7233;SDS011;3658;47.992;10.158;2024-01-10T00:28:14;5.90;;;5.27;;
7233;SDS011;3658;47.992;10.158;2024-01-10T00:30:41;6.93;;;5.47;;
7233;SDS011;3658;47.992;10.158;2024-01-10T00:33:08;5.70;;;4.87;;
7233;SDS011;3658;47.992;10.158;2024-01-10T00:35:36;5.87;;;5.00;;
7233;SDS011;3658;47.992;10.158;2024-01-10T00:38:03;6.50;;;5.37;;
7233;SDS011;3658;47.992;10.158;2024-01-10T00:40:30;8.47;;;5.30;;
7233;SDS011;3658;47.992;10.158;2024-01-10T00:42:58;6.87;;;5.50;;
7233;SDS011;3658;47.992;10.158;2024-01-10T00:45:25;7.70;;;5.67;;
7233;SDS011;3658;47.992;10.158;2024-01-10T00:47:51;5.43;;;4.93;;
7233;SDS011;3658;47.992;10.158;2024-01-10T00:50:18;5.80;;;5.10;;
7233;SDS011;3658;47.992;10.158;2024-01-10T00:52:47;5.93;;;4.93;;
7233;SDS011;3658;47.992;10.158;2024-01-10T00:55:13;6.37;;;5.27;;
7233;SDS011;3658;47.992;10.158;2024-01-10T00:57:40;5.73;;;5.13;;
7233;SDS011;3658;47.992;10.158;2024-01-10T01:00:09;6.63;;;5.17;;
7233;SDS011;3658;47.992;10.158;2024-01-10T01:02:37;6.67;;;5.37;;
7233;SDS011;3658;47.992;10.158;2024-01-10T01:05:05;5.80;;;5.23;;
7233;SDS011;3658;47.992;10.158;2024-01-10T01:07:33;6.60;;;5.40;;
7233;SDS011;3658;47.992;10.158;2024-01-10T01:10:00;6.43;;;5.33;;
7233;SDS011;3658;47.992;10.158;2024-01-10T01:12:27;6.07;;;5.10;;
7233;SDS011;3658;47.992;10.158;2024-01-10T01:14:55;6.03;;;5.43;;
7233;SDS011;3658;47.992;10.158;2024-01-10T01:17:23;7.57;;;5.47;;
7233;SDS011;3658;47.992;10.158;2024-01-10T01:19:49;6.27;;;5.67;;
7233;SDS011;3658;47.992;10.158;2024-01-10T01:22:16;6.03;;;5.43;;
7233;SDS011;3658;47.992;10.158;2024-01-10T01:24:43;6.13;;;5.30;;
7233;SDS011;3658;47.992;10.158;2024-01-10T01:27:10;7.37;;;5.80;;
7233;SDS011;3658;47.992;10.158;2024-01-10T01:29:36;5.77;;;5.10;;
7233;SDS011;3658;47.992;10.158;2024-01-10T01:32:03;6.97;;;5.40;;
7233;SDS011;3658;47.992;10.158;2024-01-10T01:34:32;6.30;;;5.37;;
7233;SDS011;3658;47.992;10.158;2024-01-10T01:36:58;6.57;;;5.63;;
7233;SDS011;3658;47.992;10.158;2024-01-10T01:39:26;5.90;;;5.30;;
7233;SDS011;3658;47.992;10.158;2024-01-10T01:41:52;7.40;;;5.20;;
7233;SDS011;3658;47.992;10.158;2024-01-10T01:44:19;7.33;;;5.70;;
7233;SDS011;3658;47.992;10.158;2024-01-10T01:46:46;7.70;;;5.83;;
7233;SDS011;3658;47.992;10.158;2024-01-10T01:49:13;6.40;;;5.70;;
7233;SDS011;3658;47.992;10.158;2024-01-10T01:51:42;6.73;;;5.70;;
7233;SDS011;3658;47.992;10.158;2024-01-10T01:54:09;6.97;;;5.83;;
7233;SDS011;3658;47.992;10.158;2024-01-10T01:56:36;7.13;;;5.70;;
7233;SDS011;3658;47.992;10.158;2024-01-10T01:59:04;6.47;;;5.23;;
7233;SDS011;3658;47.992;10.158;2024-01-10T02:01:31;7.43;;;5.83;;
7233;SDS011;3658;47.992;10.158;2024-01-10T02:03:59;6.37;;;5.77;;
7233;SDS011;3658;47.992;10.158;2024-01-10T02:06:28;5.80;;;5.03;;
7233;SDS011;3658;47.992;10.158;2024-01-10T02:08:57;7.13;;;5.63;;
7233;SDS011;3658;47.992;10.158;2024-01-10T02:11:23;6.50;;;5.90;;
7233;SDS011;3658;47.992;10.158;2024-01-10T02:13:50;6.43;;;5.53;;
7233;SDS011;3658;47.992;10.158;2024-01-10T02:16:19;6.13;;;5.20;;
7233;SDS011;3658;47.992;10.158;2024-01-10T02:18:47;6.07;;;5.47;;
7233;SDS011;3658;47.992;10.158;2024-01-10T02:21:14;5.87;;;5.30;;
7233;SDS011;3658;47.992;10.158;2024-01-10T02:23:41;7.17;;;5.90;;
7233;SDS011;3658;47.992;10.158;2024-01-10T02:26:09;5.43;;;4.93;;
7233;SDS011;3658;47.992;10.158;2024-01-10T02:28:36;6.33;;;5.30;;
7233;SDS011;3658;47.992;10.158;2024-01-10T02:31:03;6.70;;;5.50;;
7233;SDS011;3658;47.992;10.158;2024-01-10T02:33:30;6.60;;;5.70;;
7233;SDS011;3658;47.992;10.158;2024-01-10T02:35:57;6.00;;;5.20;;
7233;SDS011;3658;47.992;10.158;2024-01-10T02:38:24;6.27;;;5.47;;
7233;SDS011;3658;47.992;10.158;2024-01-10T02:40:52;6.57;;;5.20;;
7233;SDS011;3658;47.992;10.158;2024-01-10T02:43:22;5.67;;;5.10;;
7233;SDS011;3658;47.992;10.158;2024-01-10T02:45:48;6.87;;;5.27;;
7233;SDS011;3658;47.992;10.158;2024-01-10T02:48:15;6.53;;;5.37;;
7233;SDS011;3658;47.992;10.158;2024-01-10T02:50:42;6.13;;;5.37;;
7233;SDS011;3658;47.992;10.158;2024-01-10T02:53:08;6.33;;;5.33;;
7233;SDS011;3658;47.992;10.158;2024-01-10T02:55:35;6.03;;;5.07;;
7233;SDS011;3658;47.992;10.158;2024-01-10T02:58:02;5.93;;;5.30;;
7233;SDS011;3658;47.992;10.158;2024-01-10T03:00:30;5.20;;;4.70;;
7233;SDS011;3658;47.992;10.158;2024-01-10T03:02:57;6.23;;;5.27;;
7233;SDS011;3658;47.992;10.158;2024-01-10T03:05:24;6.03;;;5.27;;
7233;SDS011;3658;47.992;10.158;2024-01-10T03:07:50;6.30;;;5.27;;
7233;SDS011;3658;47.992;10.158;2024-01-10T03:10:17;6.03;;;5.00;;
7233;SDS011;3658;47.992;10.158;2024-01-10T03:12:44;5.97;;;5.27;;
7233;SDS011;3658;47.992;10.158;2024-01-10T03:15:10;6.10;;;5.27;;
7233;SDS011;3658;47.992;10.158;2024-01-10T03:17:38;6.17;;;5.13;;
7233;SDS011;3658;47.992;10.158;2024-01-10T03:20:06;6.13;;;5.20;;
7233;SDS011;3658;47.992;10.158;2024-01-10T03:22:34;6.23;;;5.03;;
7233;SDS011;3658;47.992;10.158;2024-01-10T03:25:01;6.93;;;6.10;;
7233;SDS011;3658;47.992;10.158;2024-01-10T03:27:28;6.47;;;5.50;;
7233;SDS011;3658;47.992;10.158;2024-01-10T03:29:55;5.90;;;5.10;;
7233;SDS011;3658;47.992;10.158;2024-01-10T03:32:21;6.63;;;5.63;;
7233;SDS011;3658;47.992;10.158;2024-01-10T03:34:49;6.93;;;5.43;;
7233;SDS011;3658;47.992;10.158;2024-01-10T03:37:17;6.73;;;5.60;;
7233;SDS011;3658;47.992;10.158;2024-01-10T03:39:44;6.00;;;5.20;;
7233;SDS011;3658;47.992;10.158;2024-01-10T03:42:12;5.93;;;4.87;;
7233;SDS011;3658;47.992;10.158;2024-01-10T03:44:40;6.33;;;5.27;;
7233;SDS011;3658;47.992;10.158;2024-01-10T03:47:07;5.43;;;4.90;;
7233;SDS011;3658;47.992;10.158;2024-01-10T03:49:34;5.97;;;5.30;;
7233;SDS011;3658;47.992;10.158;2024-01-10T03:52:02;6.40;;;5.40;;
7233;SDS011;3658;47.992;10.158;2024-01-10T03:54:29;6.77;;;4.93;;
7233;SDS011;3658;47.992;10.158;2024-01-10T03:56:56;6.00;;;5.37;;
7233;SDS011;3658;47.992;10.158;2024-01-10T03:59:23;5.83;;;5.23;;
7233;SDS011;3658;47.992;10.158;2024-01-10T04:01:50;6.20;;;4.93;;
7233;SDS011;3658;47.992;10.158;2024-01-10T04:04:16;6.17;;;5.53;;
7233;SDS011;3658;47.992;10.158;2024-01-10T04:06:43;5.57;;;4.93;;
7233;SDS011;3658;47.992;10.158;2024-01-10T04:09:12;5.33;;;4.83;;
7233;SDS011;3658;47.992;10.158;2024-01-10T04:11:39;5.70;;;5.03;;
7233;SDS011;3658;47.992;10.158;2024-01-10T04:14:06;7.10;;;4.97;;
7233;SDS011;3658;47.992;10.158;2024-01-10T04:16:33;5.37;;;4.73;;
7233;SDS011;3658;47.992;10.158;2024-01-10T04:18:59;6.00;;;5.40;;
7233;SDS011;3658;47.992;10.158;2024-01-10T04:21:26;6.50;;;5.50;;
7233;SDS011;3658;47.992;10.158;2024-01-10T04:23:53;5.63;;;5.07;;
7233;SDS011;3658;47.992;10.158;2024-01-10T04:26:21;6.97;;;5.20;;
7233;SDS011;3658;47.992;10.158;2024-01-10T04:28:48;6.03;;;5.10;;
7233;SDS011;3658;47.992;10.158;2024-01-10T04:31:14;6.20;;;4.87;;
7233;SDS011;3658;47.992;10.158;2024-01-10T04:33:41;5.63;;;5.03;;
7233;SDS011;3658;47.992;10.158;2024-01-10T04:36:08;5.53;;;5.03;;
7233;SDS011;3658;47.992;10.158;2024-01-10T04:38:35;5.83;;;5.10;;
7233;SDS011;3658;47.992;10.158;2024-01-10T04:41:01;5.93;;;5.10;;
7233;SDS011;3658;47.992;10.158;2024-01-10T04:43:30;5.80;;;4.97;;
7233;SDS011;3658;47.992;10.158;2024-01-10T04:45:56;5.53;;;5.00;;
7233;SDS011;3658;47.992;10.158;2024-01-10T04:48:23;6.27;;;5.03;;
7233;SDS011;3658;47.992;10.158;2024-01-10T04:50:50;6.83;;;5.33;;
7233;SDS011;3658;47.992;10.158;2024-01-10T04:53:16;5.80;;;4.90;;
7233;SDS011;3658;47.992;10.158;2024-01-10T04:55:43;5.90;;;4.87;;
7233;SDS011;3658;47.992;10.158;2024-01-10T04:58:11;5.53;;;4.60;;
7233;SDS011;3658;47.992;10.158;2024-01-10T05:00:39;6.30;;;5.07;;
7233;SDS011;3658;47.992;10.158;2024-01-10T05:03:05;5.73;;;5.13;;
7233;SDS011;3658;47.992;10.158;2024-01-10T05:05:32;5.50;;;4.70;;
7233;SDS011;3658;47.992;10.158;2024-01-10T05:07:59;5.47;;;4.97;;
7233;SDS011;3658;47.992;10.158;2024-01-10T05:10:26;6.00;;;4.80;;
7233;SDS011;3658;47.992;10.158;2024-01-10T05:12:52;5.57;;;4.80;;
7233;SDS011;3658;47.992;10.158;2024-01-10T05:15:20;6.10;;;5.03;;
7233;SDS011;3658;47.992;10.158;2024-01-10T05:17:48;5.80;;;4.70;;
7233;SDS011;3658;47.992;10.158;2024-01-10T05:20:14;5.83;;;4.67;;
7233;SDS011;3658;47.992;10.158;2024-01-10T05:22:42;6.63;;;4.93;;
7233;SDS011;3658;47.992;10.158;2024-01-10T05:25:09;7.00;;;5.30;;
7233;SDS011;3658;47.992;10.158;2024-01-10T05:27:35;6.00;;;4.93;;
7233;SDS011;3658;47.992;10.158;2024-01-10T05:30:02;5.43;;;4.93;;
7233;SDS011;3658;47.992;10.158;2024-01-10T05:32:29;6.07;;;4.83;;
7233;SDS011;3658;47.992;10.158;2024-01-10T05:34:57;6.00;;;4.80;;
7233;SDS011;3658;47.992;10.158;2024-01-10T05:37:24;6.10;;;4.80;;
7233;SDS011;3658;47.992;10.158;2024-01-10T05:39:51;5.13;;;4.60;;
7233;SDS011;3658;47.992;10.158;2024-01-10T05:42:18;5.67;;;4.60;;
7233;SDS011;3658;47.992;10.158;2024-01-10T05:44:44;5.63;;;4.80;;
7233;SDS011;3658;47.992;10.158;2024-01-10T05:47:11;6.00;;;5.00;;
7233;SDS011;3658;47.992;10.158;2024-01-10T05:49:38;5.50;;;4.77;;
7233;SDS011;3658;47.992;10.158;2024-01-10T05:52:06;4.60;;;4.17;;
7233;SDS011;3658;47.992;10.158;2024-01-10T05:54:33;6.27;;;5.10;;
7233;SDS011;3658;47.992;10.158;2024-01-10T05:56:59;6.33;;;4.80;;
7233;SDS011;3658;47.992;10.158;2024-01-10T05:59:27;7.07;;;5.10;;
7233;SDS011;3658;47.992;10.158;2024-01-10T06:01:55;5.17;;;4.43;;
7233;SDS011;3658;47.992;10.158;2024-01-10T06:04:22;5.40;;;4.47;;
7233;SDS011;3658;47.992;10.158;2024-01-10T06:06:49;5.27;;;4.60;;
7233;SDS011;3658;47.992;10.158;2024-01-10T06:09:17;5.43;;;4.53;;
7233;SDS011;3658;47.992;10.158;2024-01-10T06:11:47;6.07;;;5.03;;
7233;SDS011;3658;47.992;10.158;2024-01-10T06:14:13;5.83;;;4.60;;
7233;SDS011;3658;47.992;10.158;2024-01-10T06:16:40;5.60;;;4.63;;
7233;SDS011;3658;47.992;10.158;2024-01-10T06:19:07;6.20;;;4.87;;
7233;SDS011;3658;47.992;10.158;2024-01-10T06:21:35;5.57;;;4.77;;
7233;SDS011;3658;47.992;10.158;2024-01-10T06:24:02;5.20;;;4.20;;
7233;SDS011;3658;47.992;10.158;2024-01-10T06:26:30;5.33;;;4.37;;
7233;SDS011;3658;47.992;10.158;2024-01-10T06:28:57;5.07;;;4.23;;
7233;SDS011;3658;47.992;10.158;2024-01-10T06:31:24;5.83;;;4.70;;
7233;SDS011;3658;47.992;10.158;2024-01-10T06:33:50;7.10;;;4.43;;
7233;SDS011;3658;47.992;10.158;2024-01-10T06:36:17;6.20;;;4.90;;
7233;SDS011;3658;47.992;10.158;2024-01-10T06:38:44;5.27;;;4.50;;
7233;SDS011;3658;47.992;10.158;2024-01-10T06:41:11;5.63;;;4.77;;
7233;SDS011;3658;47.992;10.158;2024-01-10T06:43:40;5.10;;;4.47;;
7233;SDS011;3658;47.992;10.158;2024-01-10T06:46:07;9.17;;;4.07;;
7233;SDS011;3658;47.992;10.158;2024-01-10T06:48:35;5.83;;;4.37;;
7233;SDS011;3658;47.992;10.158;2024-01-10T06:51:02;6.37;;;4.97;;
7233;SDS011;3658;47.992;10.158;2024-01-10T06:53:30;6.67;;;4.87;;
7233;SDS011;3658;47.992;10.158;2024-01-10T06:55:57;5.37;;;4.57;;
7233;SDS011;3658;47.992;10.158;2024-01-10T06:58:23;5.80;;;4.70;;
7233;SDS011;3658;47.992;10.158;2024-01-10T07:00:51;9.13;;;4.90;;
7233;SDS011;3658;47.992;10.158;2024-01-10T07:03:18;7.43;;;5.00;;
7233;SDS011;3658;47.992;10.158;2024-01-10T07:05:45;6.80;;;5.43;;
7233;SDS011;3658;47.992;10.158;2024-01-10T07:08:12;5.50;;;4.47;;
7233;SDS011;3658;47.992;10.158;2024-01-10T07:10:41;5.80;;;4.43;;
7233;SDS011;3658;47.992;10.158;2024-01-10T07:13:08;5.93;;;4.70;;
7233;SDS011;3658;47.992;10.158;2024-01-10T07:15:35;6.23;;;4.90;;
7233;SDS011;3658;47.992;10.158;2024-01-10T07:18:05;8.57;;;5.40;;
7233;SDS011;3658;47.992;10.158;2024-01-10T07:20:32;8.23;;;5.33;;
7233;SDS011;3658;47.992;10.158;2024-01-10T07:22:59;11.47;;;6.43;;
7233;SDS011;3658;47.992;10.158;2024-01-10T07:25:26;10.43;;;5.43;;
7233;SDS011;3658;47.992;10.158;2024-01-10T07:27:53;7.97;;;5.73;;
7233;SDS011;3658;47.992;10.158;2024-01-10T07:30:20;13.93;;;5.87;;
7233;SDS011;3658;47.992;10.158;2024-01-10T07:32:46;10.63;;;5.73;;
7233;SDS011;3658;47.992;10.158;2024-01-10T07:35:14;11.60;;;5.70;;
7233;SDS011;3658;47.992;10.158;2024-01-10T07:37:41;8.93;;;5.00;;
7233;SDS011;3658;47.992;10.158;2024-01-10T07:40:09;12.10;;;5.37;;
7233;SDS011;3658;47.992;10.158;2024-01-10T07:42:38;10.80;;;5.80;;
7233;SDS011;3658;47.992;10.158;2024-01-10T07:45:05;7.33;;;5.80;;
7233;SDS011;3658;47.992;10.158;2024-01-10T07:47:33;8.40;;;5.23;;
7233;SDS011;3658;47.992;10.158;2024-01-10T07:50:02;8.73;;;5.67;;
7233;SDS011;3658;47.992;10.158;2024-01-10T07:52:32;8.70;;;5.37;;
7233;SDS011;3658;47.992;10.158;2024-01-10T07:54:59;6.37;;;5.03;;
7233;SDS011;3658;47.992;10.158;2024-01-10T07:57:26;7.77;;;5.10;;
7233;SDS011;3658;47.992;10.158;2024-01-10T07:59:53;8.43;;;5.70;;
7233;SDS011;3658;47.992;10.158;2024-01-10T08:02:20;6.90;;;5.03;;
7233;SDS011;3658;47.992;10.158;2024-01-10T08:04:46;6.47;;;4.93;;
7233;SDS011;3658;47.992;10.158;2024-01-10T08:07:13;7.63;;;5.07;;
7233;SDS011;3658;47.992;10.158;2024-01-10T08:09:42;5.83;;;4.60;;
7233;SDS011;3658;47.992;10.158;2024-01-10T08:12:08;6.20;;;5.00;;
7233;SDS011;3658;47.992;10.158;2024-01-10T08:14:37;6.27;;;4.90;;
7233;SDS011;3658;47.992;10.158;2024-01-10T08:17:04;7.27;;;5.47;;
7233;SDS011;3658;47.992;10.158;2024-01-10T08:19:31;7.43;;;5.33;;
7233;SDS011;3658;47.992;10.158;2024-01-10T08:21:58;8.27;;;5.10;;
7233;SDS011;3658;47.992;10.158;2024-01-10T08:24:25;9.83;;;5.53;;
7233;SDS011;3658;47.992;10.158;2024-01-10T08:26:53;5.70;;;5.00;;
7233;SDS011;3658;47.992;10.158;2024-01-10T08:29:20;6.67;;;5.00;;
7233;SDS011;3658;47.992;10.158;2024-01-10T08:31:47;5.70;;;4.77;;
7233;SDS011;3658;47.992;10.158;2024-01-10T08:34:14;7.13;;;4.43;;
7233;SDS011;3658;47.992;10.158;2024-01-10T08:36:41;6.83;;;4.87;;
7233;SDS011;3658;47.992;10.158;2024-01-10T08:39:07;5.97;;;4.33;;
7233;SDS011;3658;47.992;10.158;2024-01-10T08:41:36;5.10;;;4.53;;
7233;SDS011;3658;47.992;10.158;2024-01-10T08:44:09;5.03;;;4.20;;
7233;SDS011;3658;47.992;10.158;2024-01-10T08:46:36;5.67;;;4.40;;
7233;SDS011;3658;47.992;10.158;2024-01-10T08:49:03;6.13;;;5.40;;
7233;SDS011;3658;47.992;10.158;2024-01-10T08:51:30;6.03;;;4.80;;
7233;SDS011;3658;47.992;10.158;2024-01-10T08:53:56;5.87;;;5.13;;
7233;SDS011;3658;47.992;10.158;2024-01-10T08:56:23;5.77;;;4.20;;
7233;SDS011;3658;47.992;10.158;2024-01-10T08:58:51;5.57;;;4.43;;
7233;SDS011;3658;47.992;10.158;2024-01-10T09:01:19;6.80;;;4.87;;
7233;SDS011;3658;47.992;10.158;2024-01-10T09:03:46;5.37;;;4.40;;
7233;SDS011;3658;47.992;10.158;2024-01-10T09:06:13;5.47;;;4.70;;
7233;SDS011;3658;47.992;10.158;2024-01-10T09:08:42;5.57;;;4.70;;
7233;SDS011;3658;47.992;10.158;2024-01-10T09:11:08;5.67;;;4.90;;
7233;SDS011;3658;47.992;10.158;2024-01-10T09:13:35;5.23;;;4.10;;
7233;SDS011;3658;47.992;10.158;2024-01-10T09:16:05;5.10;;;3.93;;
7233;SDS011;3658;47.992;10.158;2024-01-10T09:18:33;5.97;;;4.80;;
7233;SDS011;3658;47.992;10.158;2024-01-10T09:20:59;5.20;;;4.70;;
7233;SDS011;3658;47.992;10.158;2024-01-10T09:23:26;6.23;;;4.47;;
7233;SDS011;3658;47.992;10.158;2024-01-10T09:25:53;4.80;;;3.90;;
7233;SDS011;3658;47.992;10.158;2024-01-10T09:28:20;5.37;;;4.40;;
7233;SDS011;3658;47.992;10.158;2024-01-10T09:30:47;5.07;;;4.57;;
7233;SDS011;3658;47.992;10.158;2024-01-10T09:33:14;5.07;;;4.57;;
7233;SDS011;3658;47.992;10.158;2024-01-10T09:35:42;5.30;;;4.47;;
7233;SDS011;3658;47.992;10.158;2024-01-10T09:38:08;5.63;;;4.53;;
7233;SDS011;3658;47.992;10.158;2024-01-10T09:40:35;5.30;;;4.20;;
7233;SDS011;3658;47.992;10.158;2024-01-10T09:43:02;4.80;;;4.30;;
7233;SDS011;3658;47.992;10.158;2024-01-10T09:45:33;5.03;;;4.37;;
7233;SDS011;3658;47.992;10.158;2024-01-10T09:48:01;5.53;;;4.70;;
7233;SDS011;3658;47.992;10.158;2024-01-10T09:50:28;5.53;;;4.43;;
7233;SDS011;3658;47.992;10.158;2024-01-10T09:52:58;5.73;;;4.50;;
7233;SDS011;3658;47.992;10.158;2024-01-10T09:55:33;4.43;;;4.03;;
7233;SDS011;3658;47.992;10.158;2024-01-10T09:58:02;4.57;;;4.00;;
7233;SDS011;3658;47.992;10.158;2024-01-10T10:00:29;5.17;;;4.13;;
7233;SDS011;3658;47.992;10.158;2024-01-10T10:02:57;6.23;;;4.73;;
7233;SDS011;3658;47.992;10.158;2024-01-10T10:05:26;5.83;;;4.57;;
7233;SDS011;3658;47.992;10.158;2024-01-10T10:07:54;4.70;;;4.20;;
7233;SDS011;3658;47.992;10.158;2024-01-10T10:10:24;4.60;;;4.17;;
7233;SDS011;3658;47.992;10.158;2024-01-10T10:12:52;4.83;;;4.03;;
7233;SDS011;3658;47.992;10.158;2024-01-10T10:15:19;5.43;;;4.57;;
7233;SDS011;3658;47.992;10.158;2024-01-10T10:17:47;4.93;;;4.30;;
7233;SDS011;3658;47.992;10.158;2024-01-10T10:20:19;4.83;;;4.33;;
7233;SDS011;3658;47.992;10.158;2024-01-10T10:22:57;5.00;;;4.40;;
7233;SDS011;3658;47.992;10.158;2024-01-10T10:25:27;5.00;;;4.33;;
7233;SDS011;3658;47.992;10.158;2024-01-10T10:27:56;6.40;;;4.57;;
7233;SDS011;3658;47.992;10.158;2024-01-10T10:30:23;4.97;;;4.43;;
7233;SDS011;3658;47.992;10.158;2024-01-10T10:32:50;5.00;;;4.30;;
7233;SDS011;3658;47.992;10.158;2024-01-10T10:35:18;5.07;;;4.30;;
7233;SDS011;3658;47.992;10.158;2024-01-10T10:37:45;5.03;;;4.17;;
7233;SDS011;3658;47.992;10.158;2024-01-10T10:40:12;6.03;;;4.40;;
7233;SDS011;3658;47.992;10.158;2024-01-10T10:42:42;5.43;;;4.83;;
7233;SDS011;3658;47.992;10.158;2024-01-10T10:45:12;4.57;;;3.83;;
7233;SDS011;3658;47.992;10.158;2024-01-10T10:47:43;5.13;;;3.77;;
7233;SDS011;3658;47.992;10.158;2024-01-10T10:50:12;4.67;;;4.17;;
7233;SDS011;3658;47.992;10.158;2024-01-10T10:52:41;5.50;;;4.37;;
7233;SDS011;3658;47.992;10.158;2024-01-10T10:55:13;4.73;;;3.93;;
7233;SDS011;3658;47.992;10.158;2024-01-10T10:57:43;5.40;;;4.50;;
7233;SDS011;3658;47.992;10.158;2024-01-10T11:00:11;5.53;;;4.23;;
7233;SDS011;3658;47.992;10.158;2024-01-10T11:02:40;5.80;;;4.07;;
7233;SDS011;3658;47.992;10.158;2024-01-10T11:05:07;4.50;;;3.83;;
7233;SDS011;3658;47.992;10.158;2024-01-10T11:07:35;4.80;;;4.30;;
7233;SDS011;3658;47.992;10.158;2024-01-10T11:10:02;4.30;;;3.90;;
7233;SDS011;3658;47.992;10.158;2024-01-10T11:12:37;4.77;;;4.10;;
7233;SDS011;3658;47.992;10.158;2024-01-10T11:15:34;6.00;;;4.37;;
7233;SDS011;3658;47.992;10.158;2024-01-10T11:18:18;4.77;;;4.10;;
7233;SDS011;3658;47.992;10.158;2024-01-10T11:21:03;4.80;;;4.33;;
7233;SDS011;3658;47.992;10.158;2024-01-10T11:23:38;4.87;;;3.77;;
7233;SDS011;3658;47.992;10.158;2024-01-10T11:26:09;4.80;;;4.30;;
7233;SDS011;3658;47.992;10.158;2024-01-10T11:28:38;5.03;;;4.40;;
7233;SDS011;3658;47.992;10.158;2024-01-10T11:31:07;4.93;;;4.30;;
7233;SDS011;3658;47.992;10.158;2024-01-10T11:33:35;6.77;;;4.50;;
7233;SDS011;3658;47.992;10.158;2024-01-10T11:36:14;5.20;;;4.53;;
7233;SDS011;3658;47.992;10.158;2024-01-10T11:38:47;5.10;;;3.93;;
7233;SDS011;3658;47.992;10.158;2024-01-10T11:41:20;4.80;;;4.17;;
7233;SDS011;3658;47.992;10.158;2024-01-10T11:46:52;5.23;;;4.57;;
7233;SDS011;3658;47.992;10.158;2024-01-10T11:49:20;6.07;;;4.27;;
7233;SDS011;3658;47.992;10.158;2024-01-10T11:51:48;4.60;;;4.00;;
7233;SDS011;3658;47.992;10.158;2024-01-10T11:57:07;4.80;;;4.30;;
7233;SDS011;3658;47.992;10.158;2024-01-10T11:59:34;5.27;;;4.43;;
7233;SDS011;3658;47.992;10.158;2024-01-10T12:02:03;6.00;;;4.23;;
7233;SDS011;3658;47.992;10.158;2024-01-10T12:04:31;4.47;;;4.07;;
7233;SDS011;3658;47.992;10.158;2024-01-10T12:06:58;4.07;;;3.67;;
7233;SDS011;3658;47.992;10.158;2024-01-10T12:09:25;6.27;;;4.63;;
7233;SDS011;3658;47.992;10.158;2024-01-10T12:11:51;4.33;;;3.70;;
7233;SDS011;3658;47.992;10.158;2024-01-10T12:14:20;5.13;;;4.40;;
7233;SDS011;3658;47.992;10.158;2024-01-10T12:16:47;4.70;;;4.20;;
7233;SDS011;3658;47.992;10.158;2024-01-10T12:19:15;4.93;;;4.30;;
7233;SDS011;3658;47.992;10.158;2024-01-10T12:21:42;4.77;;;4.27;;
7233;SDS011;3658;47.992;10.158;2024-01-10T12:24:09;5.43;;;4.60;;
7233;SDS011;3658;47.992;10.158;2024-01-10T12:26:36;4.63;;;4.10;;
7233;SDS011;3658;47.992;10.158;2024-01-10T12:29:09;5.00;;;4.23;;
7233;SDS011;3658;47.992;10.158;2024-01-10T12:31:35;5.00;;;4.10;;
7233;SDS011;3658;47.992;10.158;2024-01-10T12:34:04;4.67;;;4.20;;
7233;SDS011;3658;47.992;10.158;2024-01-10T12:36:35;5.13;;;4.30;;
7233;SDS011;3658;47.992;10.158;2024-01-10T12:39:02;4.90;;;3.90;;
7233;SDS011;3658;47.992;10.158;2024-01-10T12:41:29;5.33;;;4.43;;
7233;SDS011;3658;47.992;10.158;2024-01-10T12:43:56;4.83;;;4.33;;
7233;SDS011;3658;47.992;10.158;2024-01-10T12:46:27;4.83;;;4.27;;
7233;SDS011;3658;47.992;10.158;2024-01-10T12:49:00;5.20;;;4.50;;
7233;SDS011;3658;47.992;10.158;2024-01-10T12:51:28;4.27;;;3.83;;
7233;SDS011;3658;47.992;10.158;2024-01-10T12:53:58;5.30;;;4.53;;
7233;SDS011;3658;47.992;10.158;2024-01-10T12:56:25;4.80;;;4.07;;
7233;SDS011;3658;47.992;10.158;2024-01-10T12:58:52;4.47;;;3.73;;
7233;SDS011;3658;47.992;10.158;2024-01-10T13:01:20;5.33;;;4.60;;
7233;SDS011;3658;47.992;10.158;2024-01-10T13:03:47;4.50;;;4.10;;
7233;SDS011;3658;47.992;10.158;2024-01-10T13:06:14;5.00;;;4.23;;
7233;SDS011;3658;47.992;10.158;2024-01-10T13:08:42;4.73;;;4.20;;
7233;SDS011;3658;47.992;10.158;2024-01-10T13:11:10;5.17;;;4.67;;
7233;SDS011;3658;47.992;10.158;2024-01-10T13:13:39;5.10;;;4.40;;
7233;SDS011;3658;47.992;10.158;2024-01-10T13:16:06;4.57;;;4.17;;
7233;SDS011;3658;47.992;10.158;2024-01-10T13:18:35;4.73;;;4.20;;
7233;SDS011;3658;47.992;10.158;2024-01-10T13:21:02;5.27;;;4.50;;
7233;SDS011;3658;47.992;10.158;2024-01-10T13:23:29;5.17;;;4.60;;
7233;SDS011;3658;47.992;10.158;2024-01-10T13:25:56;5.43;;;4.27;;
7233;SDS011;3658;47.992;10.158;2024-01-10T13:28:25;5.10;;;4.10;;
7233;SDS011;3658;47.992;10.158;2024-01-10T13:30:52;6.03;;;4.60;;
7233;SDS011;3658;47.992;10.158;2024-01-10T13:33:21;4.77;;;4.27;;
7233;SDS011;3658;47.992;10.158;2024-01-10T13:35:48;5.07;;;4.53;;
7233;SDS011;3658;47.992;10.158;2024-01-10T13:38:15;5.83;;;4.57;;
7233;SDS011;3658;47.992;10.158;2024-01-10T13:40:41;4.83;;;4.37;;
7233;SDS011;3658;47.992;10.158;2024-01-10T13:43:09;5.40;;;4.63;;
7233;SDS011;3658;47.992;10.158;2024-01-10T13:45:37;4.73;;;4.30;;
7233;SDS011;3658;47.992;10.158;2024-01-10T13:48:05;5.37;;;4.70;;
7233;SDS011;3658;47.992;10.158;2024-01-10T13:50:32;4.37;;;3.87;;
7233;SDS011;3658;47.992;10.158;2024-01-10T13:53:00;5.37;;;4.07;;
7233;SDS011;3658;47.992;10.158;2024-01-10T13:55:27;5.00;;;4.23;;
7233;SDS011;3658;47.992;10.158;2024-01-10T13:57:54;4.37;;;3.97;;
7233;SDS011;3658;47.992;10.158;2024-01-10T14:00:22;5.17;;;4.67;;
7233;SDS011;3658;47.992;10.158;2024-01-10T14:02:50;5.83;;;4.60;;
7233;SDS011;3658;47.992;10.158;2024-01-10T14:05:20;5.80;;;5.10;;
7233;SDS011;3658;47.992;10.158;2024-01-10T14:07:46;5.73;;;4.70;;
7233;SDS011;3658;47.992;10.158;2024-01-10T14:10:13;5.97;;;5.10;;
7233;SDS011;3658;47.992;10.158;2024-01-10T14:12:40;5.17;;;4.67;;
7233;SDS011;3658;47.992;10.158;2024-01-10T14:15:07;4.67;;;4.10;;
7233;SDS011;3658;47.992;10.158;2024-01-10T14:17:35;4.83;;;4.20;;
7233;SDS011;3658;47.992;10.158;2024-01-10T14:20:03;5.83;;;4.73;;
7233;SDS011;3658;47.992;10.158;2024-01-10T14:22:33;4.63;;;4.20;;
7233;SDS011;3658;47.992;10.158;2024-01-10T14:25:00;5.67;;;4.83;;
7233;SDS011;3658;47.992;10.158;2024-01-10T14:27:27;4.90;;;4.40;;
7233;SDS011;3658;47.992;10.158;2024-01-10T14:29:54;4.90;;;4.40;;
7233;SDS011;3658;47.992;10.158;2024-01-10T14:32:21;5.50;;;4.77;;
7233;SDS011;3658;47.992;10.158;2024-01-10T14:34:47;4.80;;;3.93;;
7233;SDS011;3658;47.992;10.158;2024-01-10T14:37:15;5.10;;;4.30;;
7233;SDS011;3658;47.992;10.158;2024-01-10T14:39:42;4.70;;;4.23;;
7233;SDS011;3658;47.992;10.158;2024-01-10T14:42:09;4.67;;;4.17;;
7233;SDS011;3658;47.992;10.158;2024-01-10T14:44:36;4.77;;;4.27;;
7233;SDS011;3658;47.992;10.158;2024-01-10T14:47:03;4.93;;;4.43;;
7233;SDS011;3658;47.992;10.158;2024-01-10T14:49:30;5.87;;;4.30;;
7233;SDS011;3658;47.992;10.158;2024-01-10T14:51:57;4.63;;;4.23;;
7233;SDS011;3658;47.992;10.158;2024-01-10T14:54:25;4.77;;;4.23;;
7233;SDS011;3658;47.992;10.158;2024-01-10T14:56:52;5.20;;;4.63;;
7233;SDS011;3658;47.992;10.158;2024-01-10T14:59:19;5.83;;;4.30;;
7233;SDS011;3658;47.992;10.158;2024-01-10T15:01:46;5.10;;;4.30;;
7233;SDS011;3658;47.992;10.158;2024-01-10T15:04:12;5.13;;;4.63;;
7233;SDS011;3658;47.992;10.158;2024-01-10T15:06:43;5.03;;;4.10;;
7233;SDS011;3658;47.992;10.158;2024-01-10T15:09:11;5.13;;;4.30;;